Time;durP1;ratioP1;P1;durP2;ratioP2;P2;SDS_P1;SDS_P2;PMS_P1;PMS_P2;Temp;Humidity;BMP_temperature;BMP_pressure;BME280_temperature;BME280_humidity;BME280_pressure;Samples;Min_cycle;Max_cycle;Signal;HPM_P1;HPM_P2
2022/06/02 00:00:16;;;;;;;6.70;5.20;;;;;;;10.73;75.24;101902.56;5169219;28;20050;-69
2022/06/02 00:03:25;;;;;;;6.60;4.93;;;;;;;10.93;73.83;101895.59;5170351;28;20462;-69
2022/06/02 00:06:09;;;;;;;5.63;5.00;;;;;;;10.93;74.37;101890.34;5153592;28;20046;-68
2022/06/02 00:09:13;;;;;;;8.43;4.83;;;;;;;10.95;73.83;101892.00;5167556;28;20015;-69
2022/06/02 00:12:06;;;;;;;6.60;5.82;;;;;;;10.80;75.14;101895.28;5169995;28;20027;-68
2022/06/02 00:15:00;;;;;;;6.90;5.17;;;;;;;10.69;75.64;101896.59;5174079;28;20039;-68
2022/06/02 00:17:59;;;;;;;6.97;5.47;;;;;;;10.51;76.00;101903.47;5169017;28;20390;-69
2022/06/02 00:20:36;;;;;;;6.10;5.50;;;;;;;10.32;76.89;101899.00;5169065;28;20022;-69
2022/06/02 00:23:21;;;;;;;7.37;5.97;;;;;;;10.37;77.36;101902.28;5170365;28;20400;-68
2022/06/02 00:26:02;;;;;;;7.47;6.13;;;;;;;10.56;76.40;101901.50;5185656;28;20049;-69
2022/06/02 00:28:46;;;;;;;7.43;5.60;;;;;;;10.22;78.65;101903.78;5170882;28;20456;-69
2022/06/02 00:31:36;;;;;;;9.20;6.70;;;;;;;10.28;78.51;101897.44;5184869;28;20072;-69
2022/06/02 00:34:20;;;;;;;10.53;6.30;;;;;;;10.02;79.08;101904.56;5169900;28;20049;-68
2022/06/02 00:37:04;;;;;;;6.63;6.00;;;;;;;10.09;79.41;101894.72;5170385;28;20055;-68
2022/06/02 00:39:35;;;;;;;7.22;5.78;;;;;;;10.19;77.59;101897.81;5185335;28;20031;-68
2022/06/02 00:42:25;;;;;;;6.83;6.13;;;;;;;10.43;76.51;101905.53;5170100;28;20101;-68
2022/06/02 00:45:00;;;;;;;6.63;5.90;;;;;;;10.22;77.49;101903.78;5184451;28;20034;-69
2022/06/02 00:47:50;;;;;;;;;;;;;;;10.59;74.38;101916.25;5170682;28;20423;-68
2022/06/02 00:50:43;;;;;;;9.73;6.37;;;;;;;10.04;77.90;101901.00;5184066;28;19918;-68
2022/06/02 00:53:24;;;;;;;7.73;7.00;;;;;;;10.04;77.81;101907.97;5169924;28;20390;-68
2022/06/02 00:59:55;;;;;;;6.63;5.90;;;;;;;10.34;75.93;101912.88;5170345;28;20529;-68
2022/06/02 01:02:27;;;;;;;7.13;6.13;;;;;;;10.17;76.99;101914.41;5170555;28;20027;-69
2022/06/02 01:05:00;;;;;;;9.90;6.13;;;;;;;9.93;78.33;101904.03;5191526;22;20081;-69
2022/06/02 01:07:50;;;;;;;8.73;6.30;;;;;;;10.20;76.45;101907.34;5210881;28;20506;-68
2022/06/02 01:10:35;;;;;;;7.80;6.40;;;;;;;9.85;79.53;101907.88;5210695;28;20041;-69
2022/06/02 01:13:24;;;;;;;9.05;6.65;;;;;;;9.92;77.93;101907.56;5209772;28;20440;-68
2022/06/02 01:15:59;;;;;;;7.10;6.37;;;;;;;9.90;78.41;101913.75;5210875;28;20114;-69
2022/06/02 01:19:17;;;;;;;7.90;7.00;;;;;;;9.92;78.29;101912.81;5210443;28;20425;-69
2022/06/02 01:22:28;;;;;;;9.00;7.23;;;;;;;10.01;78.13;101910.72;5200581;28;20050;-69
2022/06/02 01:25:34;;;;;;;9.13;7.43;;;;;;;9.82;78.84;101908.84;5210221;28;20030;-68
2022/06/02 01:29:00;;;;;;;9.20;7.30;;;;;;;9.85;78.49;101900.88;5209874;28;20046;-69
2022/06/02 01:31:43;;;;;;;9.40;7.73;;;;;;;9.84;78.39;101914.03;5186927;28;20558;-68
2022/06/02 01:34:32;;;;;;;10.43;8.13;;;;;;;9.72;78.99;101913.56;5206896;28;20967;-69
2022/06/02 01:37:06;;;;;;;8.90;8.00;;;;;;;9.52;79.22;101912.59;5212983;28;20022;-68
2022/06/02 01:39:43;;;;;;;9.25;7.40;;;;;;;9.59;79.68;101910.59;5208776;28;20481;-68
2022/06/02 01:42:38;;;;;;;8.50;7.60;;;;;;;9.63;79.59;101906.09;5207925;28;20480;-68
2022/06/02 01:45:16;;;;;;;9.10;8.10;;;;;;;9.70;79.61;101919.78;5208651;28;20029;-68
2022/06/02 01:47:56;;;;;;;8.07;7.37;;;;;;;9.84;78.87;101914.88;5208281;28;20022;-69
2022/06/02 01:50:40;;;;;;;9.50;7.77;;;;;;;9.87;78.67;101909.53;5208509;28;20041;-69
2022/06/02 01:53:19;;;;;;;8.27;7.47;;;;;;;9.61;79.12;101903.56;5209988;28;20034;-69
2022/06/02 01:56:02;;;;;;;8.13;7.10;;;;;;;9.71;78.99;101913.63;5209498;28;20041;-67
2022/06/02 01:58:48;;;;;;;7.90;7.20;;;;;;;9.84;77.92;101914.03;5209584;28;20030;-67
2022/06/02 02:01:56;;;;;;;9.90;7.73;;;;;;;9.83;77.56;101902.69;5208920;28;20026;-68
2022/06/02 02:04:38;;;;;;;10.13;8.00;;;;;;;9.79;77.60;101903.75;5208128;28;20041;-67
2022/06/02 02:07:26;;;;;;;9.03;7.90;;;;;;;9.73;78.82;101911.81;5209372;28;20026;-67
2022/06/02 02:10:22;;;;;;;10.00;9.00;;;;;;;9.85;77.42;101916.56;5209505;28;20029;-68
2022/06/02 02:13:15;;;;;;;8.70;7.83;;;;;;;9.77;78.30;101923.88;5208458;28;20054;-68
2022/06/02 02:16:02;;;;;;;9.30;7.53;;;;;;;9.77;77.92;101909.00;5208026;28;20477;-68
2022/06/02 02:18:45;;;;;;;10.47;9.37;;;;;;;9.35;80.23;101918.47;5209132;28;20412;-69
2022/06/02 02:21:25;;;;;;;10.97;9.23;;;;;;;9.53;79.53;101922.13;5207587;28;20124;-69
2022/06/02 02:24:28;;;;;;;11.90;9.37;;;;;;;9.61;78.49;101924.47;5209180;28;20073;-69
2022/06/02 02:27:10;;;;;;;10.23;8.63;;;;;;;9.52;79.25;101916.97;5209173;28;20069;-68
2022/06/02 02:30:03;;;;;;;10.63;9.53;;;;;;;9.38;79.95;101925.34;5209614;28;20134;-68
2022/06/02 02:32:45;;;;;;;10.83;9.63;;;;;;;9.41;79.76;101925.22;5210179;28;20412;-68
2022/06/02 02:35:43;;;;;;;10.80;9.80;;;;;;;9.55;78.29;101924.69;5209384;28;20026;-68
2022/06/02 02:38:42;;;;;;;11.67;10.50;;;;;;;9.53;77.95;101926.53;5210068;28;20460;-68
2022/06/02 02:41:40;;;;;;;11.70;10.50;;;;;;;9.52;77.90;101930.03;5209255;28;20068;-68
2022/06/02 02:44:38;;;;;;;12.40;11.10;;;;;;;9.43;78.72;101926.88;5208476;28;20477;-68
2022/06/02 02:47:21;;;;;;;12.87;11.57;;;;;;;9.27;79.57;101928.34;5211292;28;20120;-67
2022/06/02 02:50:02;;;;;;;13.97;12.33;;;;;;;9.25;79.81;101924.94;5210078;28;20101;-69
2022/06/02 02:53:11;;;;;;;14.70;13.13;;;;;;;9.29;79.30;101931.75;5209399;28;20030;-68
2022/06/02 02:55:55;;;;;;;14.40;12.93;;;;;;;9.10;79.65;101929.81;5209403;28;20042;-68
2022/06/02 02:59:02;;;;;;;15.05;13.50;;;;;;;8.88;80.35;101919.28;5208830;28;20034;-69
2022/06/02 03:02:12;;;;;;;13.33;12.07;;;;;;;9.10;79.88;101940.28;5208642;28;20026;-69
2022/06/02 03:05:01;;;;;;;16.33;12.53;;;;;;;8.81;80.58;101931.72;5208145;28;20547;-69
2022/06/02 03:07:33;;;;;;;14.80;12.57;;;;;;;9.03;79.77;101938.78;5209198;28;20100;-69
2022/06/02 03:10:24;;;;;;;13.80;11.93;;;;;;;9.08;79.32;101942.94;5207249;28;20113;-69
2022/06/02 03:13:35;;;;;;;12.97;11.63;;;;;;;8.89;80.09;101944.50;5203778;28;20048;-69
2022/06/02 03:16:12;;;;;;;13.00;11.17;;;;;;;8.89;79.72;101947.97;5195526;28;20472;-68
2022/06/02 03:19:26;;;;;;;13.87;10.40;;;;;;;9.03;78.97;101952.72;5208249;28;20041;-68
2022/06/02 03:22:25;;;;;;;13.47;11.00;;;;;;;8.85;79.27;101946.34;5207351;28;20022;-69
2022/06/02 03:25:08;;;;;;;12.33;10.53;;;;;;;8.71;79.92;101950.31;5207211;28;20030;-68
2022/06/02 03:27:51;;;;;;;14.37;11.40;;;;;;;8.74;80.74;101961.56;5207548;28;20053;-69
2022/06/02 03:30:25;;;;;;;14.63;13.03;;;;;;;8.66;81.30;101962.66;5211794;28;20379;-71
2022/06/02 03:33:30;;;;;;;15.82;13.88;;;;;;;8.84;80.50;101968.19;5210563;28;20030;-69
2022/06/02 03:36:17;;;;;;;15.05;13.50;;;;;;;8.86;80.41;101968.13;5209922;28;20030;-68
2022/06/02 03:38:57;;;;;;;16.40;13.63;;;;;;;8.86;80.64;101971.59;5212326;28;20072;-68
2022/06/02 03:41:37;;;;;;;15.97;14.33;;;;;;;8.53;81.44;101977.88;5212003;28;20021;-68
2022/06/02 03:44:25;;;;;;;16.00;14.40;;;;;;;8.53;82.30;101977.88;5211850;28;20026;-68
2022/06/02 03:47:45;;;;;;;16.17;14.33;;;;;;;8.76;81.29;101975.44;5212621;28;20076;-68
2022/06/02 03:50:41;;;;;;;15.70;14.07;;;;;;;8.77;81.31;101982.34;5193035;28;20049;-68
2022/06/02 03:53:42;;;;;;;17.80;15.40;;;;;;;8.80;80.96;101985.72;5210418;28;20045;-69
2022/06/02 03:56:26;;;;;;;17.03;14.23;;;;;;;8.65;81.74;101984.47;5211767;28;20057;-68
2022/06/02 03:59:00;;;;;;;16.50;14.83;;;;;;;8.66;81.34;101990.53;5211286;28;20017;-69
2022/06/02 04:01:41;;;;;;;16.38;14.80;;;;;;;8.56;81.90;101984.78;5212239;28;20901;-69
2022/06/02 04:04:31;;;;;;;17.63;15.93;;;;;;;8.41;82.52;101989.53;5210354;28;20519;-69
2022/06/02 04:07:29;;;;;;;16.60;14.87;;;;;;;8.54;82.71;101990.00;5212179;28;20037;-69
2022/06/02 04:10:19;;;;;;;19.27;17.27;;;;;;;8.26;84.48;101992.66;5211437;28;20025;-69
2022/06/02 04:16:12;;;;;;;19.13;17.13;;;;;;;8.55;84.10;102001.31;5211569;28;20782;-69
2022/06/02 04:22:24;;;;;;;18.60;16.80;;;;;;;8.73;82.84;101999.03;5210785;28;20126;-69
2022/06/02 04:25:03;;;;;;;23.70;18.27;;;;;;;8.67;83.32;102000.97;5211261;28;20041;-68
2022/06/02 04:28:00;;;;;;;19.30;17.40;;;;;;;8.70;83.36;102011.28;5211591;28;20429;-68
2022/06/02 04:30:54;;;;;;;19.97;17.97;;;;;;;8.74;83.08;101998.13;5211493;28;20026;-69
2022/06/02 04:33:40;;;;;;;20.23;18.20;;;;;;;8.80;83.16;102008.34;5210284;28;20029;-69
2022/06/02 04:36:58;;;;;;;22.80;19.90;;;;;;;8.79;83.78;102006.66;5210698;28;20103;-69
2022/06/02 04:39:54;;;;;;;24.40;20.30;;;;;;;8.85;84.29;102010.84;5210489;28;20062;-69
2022/06/02 04:43:00;;;;;;;23.37;21.07;;;;;;;8.76;85.31;102014.59;5211598;28;20067;-69
2022/06/02 04:45:43;;;;;;;22.93;20.53;;;;;;;8.63;86.52;102015.00;5208384;28;20036;-69
2022/06/02 04:48:30;;;;;;;23.30;20.90;;;;;;;8.88;85.00;102019.44;5223701;28;20048;-68
2022/06/02 04:51:20;;;;;;;21.77;19.57;;;;;;;8.91;85.00;102013.22;5210247;28;20506;-68
2022/06/02 04:53:57;;;;;;;24.33;21.93;;;;;;;8.88;86.29;102021.19;5211047;28;20106;-69
2022/06/02 04:56:28;;;;;;;25.33;22.57;;;;;;;8.67;88.06;102016.63;5210624;28;20018;-68
2022/06/02 04:59:13;;;;;;;25.07;22.47;;;;;;;8.78;88.93;102018.03;5210960;28;20041;-68
2022/06/02 05:01:57;;;;;;;24.23;21.73;;;;;;;8.69;89.88;102017.41;5210403;28;20564;-69
2022/06/02 05:04:42;;;;;;;26.70;23.90;;;;;;;8.69;89.63;102012.19;5208250;28;20026;-69
2022/06/02 05:07:53;;;;;;;25.03;22.43;;;;;;;8.84;87.71;102004.75;5210367;28;20727;-69
2022/06/02 05:10:46;;;;;;;24.93;22.53;;;;;;;9.04;87.16;102024.13;5210677;28;20033;-70
2022/06/02 05:13:33;;;;;;;27.17;24.33;;;;;;;9.07;87.96;102024.88;5213856;28;20503;-67
2022/06/02 05:16:12;;;;;;;29.07;25.87;;;;;;;9.12;88.31;102016.00;5203049;28;20042;-68
2022/06/02 05:19:29;;;;;;;27.07;24.30;;;;;;;9.20;88.00;102024.44;5204849;28;20062;-67
2022/06/02 05:22:32;;;;;;;28.40;25.40;;;;;;;9.27;87.19;102035.53;5189593;28;20030;-68
2022/06/02 05:25:12;;;;;;;28.80;25.90;;;;;;;9.14;91.35;102025.53;5205255;28;20515;-69
2022/06/02 05:28:21;;;;;;;31.17;28.07;;;;;;;9.22;91.22;102032.22;5190057;28;20035;-68
2022/06/02 05:31:09;;;;;;;30.40;27.27;;;;;;;9.20;92.02;102029.66;5184739;28;20472;-68
2022/06/02 05:33:40;;;;;;;28.30;25.47;;;;;;;9.30;90.70;102030.22;5188909;28;20034;-69
2022/06/02 05:36:54;;;;;;;29.63;26.47;;;;;;;9.32;90.84;102028.38;5179069;28;20616;-66
2022/06/02 05:39:42;;;;;;;29.40;26.30;;;;;;;9.34;91.91;102023.94;5176624;28;20046;-67
2022/06/02 05:42:43;;;;;;;29.40;26.30;;;;;;;9.40;92.06;102021.13;5177900;28;20023;-67
2022/06/02 05:45:33;;;;;;;30.10;27.10;;;;;;;9.44;92.88;102027.09;5163711;28;20076;-67
2022/06/02 05:48:21;;;;;;;28.23;25.30;;;;;;;9.53;91.83;102039.81;5201856;28;20034;-67
2022/06/02 05:51:21;;;;;;;29.77;26.80;;;;;;;9.55;92.10;102040.63;5177015;28;20031;-68
2022/06/02 05:54:14;;;;;;;30.13;27.13;;;;;;;9.59;92.47;102025.69;5176819;28;20409;-70
2022/06/02 05:57:09;;;;;;;29.80;26.67;;;;;;;9.61;93.48;102036.94;5177354;28;20034;-66
2022/06/02 05:59:59;;;;;;;27.63;24.85;;;;;;;9.67;92.86;102043.69;5183066;28;20032;-67
2022/06/02 06:02:56;;;;;;;27.80;24.93;;;;;;;9.73;93.75;102046.09;5183870;28;20090;-66
2022/06/02 06:05:35;;;;;;;27.60;21.60;;;;;;;9.80;93.11;102051.97;5174134;28;20054;-66
2022/06/02 06:08:31;;;;;;;25.53;22.70;;;;;;;9.86;94.18;102046.47;5185019;28;20023;-68
2022/06/02 06:11:11;;;;;;;26.27;21.57;;;;;;;9.91;94.73;102055.00;5177453;28;20045;-66
2022/06/02 06:13:56;;;;;;;24.63;21.90;;;;;;;9.98;93.32;102058.28;5176278;28;20157;-67
2022/06/02 06:16:33;;;;;;;24.10;21.63;;;;;;;10.01;93.80;102057.28;5179417;28;20481;-67
2022/06/02 06:19:33;;;;;;;23.50;21.07;;;;;;;10.12;92.47;102060.34;5179668;28;20015;-67
2022/06/02 06:22:31;;;;;;;24.93;22.53;;;;;;;10.21;92.18;102068.78;5185569;28;20029;-67
2022/06/02 06:25:06;;;;;;;23.30;20.80;;;;;;;10.28;91.09;102070.25;5187763;28;20030;-67
2022/06/02 06:28:05;;;;;;;22.60;20.27;;;;;;;10.39;92.07;102062.81;5186752;28;20036;-69
2022/06/02 06:31:07;;;;;;;22.13;19.77;;;;;;;10.48;91.71;102079.09;5182453;28;20026;-69
2022/06/02 06:34:11;;;;;;;18.23;16.07;;;;;;;10.56;90.20;102066.53;5186216;28;20081;-68
2022/06/02 06:37:10;;;;;;;20.67;18.67;;;;;;;10.72;91.02;102076.41;5187560;28;20057;-67
2022/06/02 06:40:09;;;;;;;19.53;17.60;;;;;;;10.84;90.64;102078.53;5183123;28;20038;-67
2022/06/02 06:42:46;;;;;;;18.17;16.10;;;;;;;10.97;90.57;102078.88;5178450;28;20376;-67
2022/06/02 06:45:26;;;;;;;19.77;16.13;;;;;;;11.15;89.89;102083.41;5187385;28;20060;-67
2022/06/02 06:48:01;;;;;;;18.40;16.30;;;;;;;11.32;89.60;102090.56;5187410;28;20034;-69
2022/06/02 06:50:57;;;;;;;16.23;14.57;;;;;;;11.53;88.59;102098.41;5182687;28;20027;-68
2022/06/02 06:53:59;;;;;;;13.03;11.77;;;;;;;11.82;86.20;102091.88;5180124;28;20786;-68
2022/06/02 06:56:37;;;;;;;13.53;12.10;;;;;;;12.05;84.51;102089.09;5202062;28;20907;-72
2022/06/02 06:59:32;;;;;;;13.43;12.03;;;;;;;12.40;83.52;102096.28;5183537;28;20058;-72
2022/06/02 07:02:28;;;;;;;13.73;12.32;;;;;;;12.74;82.26;102088.56;5186552;28;20097;-72
2022/06/02 07:05:02;;;;;;;12.33;11.13;;;;;;;13.00;79.90;102092.53;5190373;28;20105;-71
2022/06/02 07:07:49;;;;;;;12.88;11.68;;;;;;;13.23;78.74;102084.41;5192129;28;20115;-70
2022/06/02 07:10:29;;;;;;;11.60;10.40;;;;;;;13.11;76.40;102099.03;5187202;28;20026;-72
2022/06/02 07:13:09;;;;;;;10.20;9.20;;;;;;;12.91;75.79;102095.59;5189841;28;20030;-69
2022/06/02 07:15:47;;;;;;;9.47;8.67;;;;;;;12.77;76.14;102097.16;5182452;28;20033;-67
2022/06/02 07:18:44;;;;;;;10.70;9.10;;;;;;;12.82;78.02;102103.03;5187964;28;20038;-71
2022/06/02 07:22:00;;;;;;;11.27;9.67;;;;;;;12.79;77.58;102102.34;5190340;28;20038;-71
2022/06/02 07:24:49;;;;;;;;;;;;;;;13.03;77.84;102109.91;5195619;28;20069;-70
2022/06/02 07:27:38;;;;;;;11.53;9.77;;;;;;;13.11;77.14;102102.50;5193560;28;20453;-70
2022/06/02 07:30:27;;;;;;;11.80;9.57;;;;;;;13.10;75.14;102113.09;5188020;28;20026;-71
2022/06/02 07:33:10;;;;;;;9.97;8.97;;;;;;;13.16;75.71;102116.25;5185731;28;20022;-71
2022/06/02 07:35:54;;;;;;;12.93;10.00;;;;;;;13.21;76.48;102129.19;5190248;28;20109;-71
2022/06/02 07:38:59;;;;;;;13.03;10.33;;;;;;;13.81;75.77;102120.94;5188193;28;20080;-71
2022/06/02 07:41:34;;;;;;;;;;;;;;;14.50;75.88;102124.19;5205407;28;20328;-71
2022/06/02 07:44:19;;;;;;;11.77;9.00;;;;;;;15.20;69.19;102116.75;5188927;28;19967;-70
2022/06/02 07:47:34;;;;;;;12.07;9.43;;;;;;;15.92;68.38;102122.16;5188408;28;20035;-70
2022/06/02 07:50:19;;;;;;;8.77;7.60;;;;;;;16.12;63.31;102122.72;5185292;28;20653;-71
2022/06/02 07:53:12;;;;;;;10.53;8.23;;;;;;;16.79;64.48;102121.13;5189892;28;20101;-71
2022/06/02 07:55:49;;;;;;;9.67;7.87;;;;;;;17.43;59.42;102119.53;5182479;28;20038;-71
2022/06/02 07:58:36;;;;;;;10.10;7.87;;;;;;;17.78;58.72;102110.09;5189552;28;20436;-70
2022/06/02 08:01:16;;;;;;;7.43;6.47;;;;;;;18.31;58.25;102114.28;5190250;28;20027;-70
2022/06/02 08:04:19;;;;;;;7.50;6.47;;;;;;;19.04;57.42;102102.75;5189123;28;20025;-71
2022/06/02 08:07:07;;;;;;;8.83;6.77;;;;;;;18.93;56.33;102097.44;5190594;28;20035;-72
2022/06/02 08:09:56;;;;;;;6.97;6.27;;;;;;;18.88;54.97;102111.06;5186150;28;20065;-72
2022/06/02 08:12:58;;;;;;;8.70;7.00;;;;;;;19.38;54.87;102111.78;5190193;28;20026;-74
2022/06/02 08:15:38;;;;;;;7.70;7.00;;;;;;;19.71;51.69;102107.44;5187775;28;20022;-73
2022/06/02 08:18:20;;;;;;;7.47;6.78;;;;;;;19.95;48.80;102111.75;5187691;28;20078;-74
2022/06/02 08:21:15;;;;;;;7.95;6.70;;;;;;;19.93;51.45;102103.09;5187274;28;20050;-73
2022/06/02 08:24:20;;;;;;;7.85;6.63;;;;;;;19.71;52.23;102102.13;5189285;28;20030;-72
2022/06/02 08:27:20;;;;;;;7.30;6.45;;;;;;;19.23;52.27;102115.50;5191257;28;20113;-74
2022/06/02 08:29:53;;;;;;;6.87;6.00;;;;;;;18.53;52.28;102115.38;5185513;28;20385;-73
2022/06/02 08:32:34;;;;;;;9.23;7.13;;;;;;;18.42;53.03;102110.88;5204577;28;20535;-74
2022/06/02 08:35:11;;;;;;;7.17;6.10;;;;;;;17.90;53.71;102119.81;5188709;28;20497;-73
2022/06/02 08:38:31;;;;;;;8.03;7.07;;;;;;;18.02;53.90;102114.56;5191110;28;20035;-73
2022/06/02 08:41:30;;;;;;;5.93;5.43;;;;;;;18.29;53.18;102116.25;5189155;28;20520;-73
2022/06/02 08:44:21;;;;;;;6.47;5.87;;;;;;;18.16;52.94;102126.03;5187496;28;20029;-73
2022/06/02 08:47:17;;;;;;;5.97;5.37;;;;;;;18.51;52.70;102125.25;5175397;28;20033;-74
2022/06/02 08:50:34;;;;;;;6.50;3.70;;;;;;;18.43;52.18;102119.69;5185792;28;20035;-73
2022/06/02 08:53:43;;;;;;;4.97;3.77;;;;;;;17.95;51.21;102119.47;5166317;28;20034;-72
2022/06/02 08:56:51;;;;;;;5.50;4.23;;;;;;;18.30;52.86;102127.69;5186157;28;20026;-73
2022/06/02 09:00:20;;;;;;;6.63;4.03;;;;;;;19.19;50.99;102126.47;5186528;28;20037;-73
2022/06/02 09:03:09;;;;;;;4.90;3.70;;;;;;;20.04;47.97;102128.78;5189864;28;20032;-72
2022/06/02 09:06:24;;;;;;;5.10;3.77;;;;;;;20.28;47.33;102125.97;5205677;28;20089;-72
2022/06/02 09:09:35;;;;;;;4.03;3.53;;;;;;;19.95;47.42;102125.03;5183991;28;20050;-72
2022/06/02 09:12:50;;;;;;;4.93;3.97;;;;;;;20.34;46.86;102118.47;5185958;28;20085;-73
2022/06/02 09:16:08;;;;;;;5.07;3.15;;;;;;;20.94;46.13;102120.69;5188735;28;20030;-72
2022/06/02 09:19:05;;;;;;;4.95;3.90;;;;;;;21.47;44.38;102118.88;5185201;28;20414;-73
2022/06/02 09:21:46;;;;;;;4.10;3.70;;;;;;;21.88;43.34;102118.06;5199375;28;20469;-74
2022/06/02 09:24:57;;;;;;;4.63;3.78;;;;;;;23.24;41.45;102116.53;5201109;28;20451;-74
2022/06/02 09:27:52;;;;;;;4.65;4.13;;;;;;;23.04;41.03;102121.09;5187702;28;20031;-73
2022/06/02 09:31:05;;;;;;;4.80;4.13;;;;;;;23.99;38.87;102121.97;5196127;28;20029;-73
2022/06/02 09:33:49;;;;;;;4.10;3.70;;;;;;;24.04;37.79;102117.88;5186358;28;20046;-74
2022/06/02 09:36:58;;;;;;;4.22;3.47;;;;;;;25.00;37.39;102111.19;5187332;28;20066;-72
2022/06/02 09:39:51;;;;;;;3.47;3.15;;;;;;;24.58;34.08;102128.75;5187866;28;20520;-72
2022/06/02 09:43:05;;;;;;;4.75;3.25;;;;;;;25.24;35.37;102117.69;5200902;28;20022;-74
2022/06/02 09:45:48;;;;;;;3.90;3.13;;;;;;;25.23;33.43;102126.75;5188583;28;20101;-73
2022/06/02 09:48:43;;;;;;;4.32;3.50;;;;;;;25.84;33.40;102110.63;5187782;28;20034;-71
2022/06/02 09:51:52;;;;;;;4.75;3.53;;;;;;;25.98;34.19;102106.47;5188850;28;20026;-72
2022/06/02 09:54:29;;;;;;;3.05;2.70;;;;;;;25.08;32.47;102116.59;5188835;28;20033;-73
2022/06/02 09:57:55;;;;;;;4.75;3.38;;;;;;;25.91;32.24;102110.78;5188419;28;20030;-73
2022/06/02 10:00:39;;;;;;;5.18;2.88;;;;;;;26.60;33.41;102113.41;5185086;28;20130;-73
2022/06/02 10:03:49;;;;;;;4.50;3.88;;;;;;;26.99;33.63;102112.69;5191022;28;20030;-73
2022/06/02 10:06:20;;;;;;;3.92;3.53;;;;;;;26.25;30.89;102126.97;5188074;28;20050;-73
2022/06/02 10:09:22;;;;;;;3.90;3.50;;;;;;;26.09;32.74;102110.66;5184213;28;20037;-73
2022/06/02 10:15:38;;;;;;;5.43;3.13;;;;;;;27.14;31.40;102104.78;5174077;28;20034;-72
2022/06/02 10:18:09;;;;;;;3.88;3.35;;;;;;;26.24;30.51;102103.78;5186765;28;20026;-72
2022/06/02 10:21:06;;;;;;;3.90;3.47;;;;;;;26.41;32.05;102110.06;5184634;28;20022;-73
2022/06/02 10:24:15;;;;;;;9.05;4.22;;;;;;;26.53;32.82;102108.69;5187314;28;20033;-73
2022/06/02 10:27:11;;;;;;;4.35;3.85;;;;;;;26.45;32.10;102100.66;5173255;28;20088;-72
2022/06/02 10:30:19;;;;;;;4.88;4.38;;;;;;;27.18;32.16;102111.50;5185466;28;20037;-74
2022/06/02 10:33:28;;;;;;;4.45;3.38;;;;;;;28.13;30.24;102104.50;5180130;28;20397;-73
2022/06/02 10:36:23;;;;;;;4.95;2.67;;;;;;;27.92;29.51;102100.59;5178919;28;20512;-72
2022/06/02 10:39:18;;;;;;;4.10;3.70;;;;;;;27.63;28.50;102099.41;5183785;28;20691;-74
2022/06/02 10:42:23;;;;;;;3.33;3.03;;;;;;;27.93;28.82;102099.56;5188354;28;20034;-74
2022/06/02 10:45:13;;;;;;;3.83;3.42;;;;;;;26.92;29.29;102100.94;5176548;28;20109;-74
2022/06/02 10:48:06;;;;;;;4.50;3.28;;;;;;;27.84;28.86;102104.16;5186290;28;20034;-74
2022/06/02 10:51:11;;;;;;;4.63;3.70;;;;;;;26.97;29.64;102095.88;5183764;28;20030;-74
2022/06/02 10:54:08;;;;;;;5.20;3.78;;;;;;;25.93;29.74;102099.91;5182725;28;20061;-71
2022/06/02 10:57:18;;;;;;;3.80;3.38;;;;;;;27.28;29.31;102084.38;5186489;28;20018;-72
2022/06/02 11:00:15;;;;;;;3.78;3.47;;;;;;;27.24;28.63;102082.22;5182863;28;20046;-70
2022/06/02 11:03:34;;;;;;;3.50;3.20;;;;;;;27.43;30.47;102070.22;5181026;28;20030;-70
2022/06/02 11:06:14;;;;;;;4.15;3.75;;;;;;;27.40;30.04;102087.53;5192496;28;20046;-68
2022/06/02 11:08:51;;;;;;;4.38;3.22;;;;;;;27.60;28.45;102078.19;5181014;28;20027;-70
2022/06/02 11:12:01;;;;;;;3.50;3.10;;;;;;;26.72;30.83;102085.19;5182599;28;20087;-69
2022/06/02 11:15:08;;;;;;;4.05;3.35;;;;;;;27.47;30.08;102079.63;5181741;28;20038;-69
2022/06/02 11:17:54;;;;;;;4.93;3.42;;;;;;;26.20;30.34;102073.75;5194975;28;20026;-68
2022/06/02 11:21:03;;;;;;;4.18;3.05;;;;;;;27.33;30.65;102080.34;5178049;28;20029;-69
2022/06/02 11:23:48;;;;;;;3.88;3.47;;;;;;;26.88;30.09;102078.13;5178622;28;20041;-68
2022/06/02 11:26:48;;;;;;;4.38;3.33;;;;;;;26.23;30.51;102081.50;5185826;28;20787;-70
2022/06/02 11:29:44;;;;;;;4.13;3.72;;;;;;;26.07;30.41;102074.25;5187141;28;20489;-70
2022/06/02 11:32:53;;;;;;;3.67;3.33;;;;;;;26.11;31.13;102078.28;5186478;28;20042;-72
2022/06/02 11:35:46;;;;;;;5.72;3.40;;;;;;;24.85;30.02;102074.25;5185946;28;20034;-72
2022/06/02 11:38:24;;;;;;;3.70;3.40;;;;;;;24.26;29.86;102082.81;5185386;28;20500;-71
2022/06/02 11:41:22;;;;;;;4.53;2.70;;;;;;;25.01;31.24;102078.06;5184399;28;20486;-70
2022/06/02 11:44:09;;;;;;;3.45;2.90;;;;;;;24.53;30.38;102070.31;5185726;28;20650;-71
2022/06/02 11:47:13;;;;;;;3.13;2.50;;;;;;;25.13;31.15;102059.84;5187031;28;20092;-70
2022/06/02 11:50:07;;;;;;;2.97;2.65;;;;;;;24.99;31.33;102063.97;5178171;28;20555;-71
2022/06/02 11:52:38;;;;;;;3.55;3.22;;;;;;;25.76;29.24;102053.41;5173918;28;20168;-71
2022/06/02 11:55:22;;;;;;;5.22;3.10;;;;;;;24.95;31.18;102031.28;5186293;28;20113;-71
2022/06/02 11:58:22;;;;;;;6.35;3.33;;;;;;;25.18;31.44;102048.66;5198264;28;20035;-72
2022/06/02 12:01:30;;;;;;;3.67;3.08;;;;;;;25.07;32.31;102041.72;5184972;28;20054;-72
2022/06/02 12:04:46;;;;;;;3.60;3.13;;;;;;;25.54;30.36;102039.56;5179746;28;20105;-71
2022/06/02 12:07:45;;;;;;;3.38;3.08;;;;;;;25.81;30.17;102040.34;5200213;28;20401;-70
2022/06/02 12:10:39;;;;;;;3.25;2.45;;;;;;;25.33;31.40;102032.78;5185440;28;20068;-71
2022/06/02 12:13:36;;;;;;;3.07;2.73;;;;;;;25.42;30.93;102029.13;5181218;28;20544;-71
2022/06/02 12:16:27;;;;;;;4.68;2.20;;;;;;;25.18;31.67;102024.53;5186521;28;20136;-71
2022/06/02 12:19:20;;;;;;;3.05;2.10;;;;;;;25.00;30.57;102020.09;5182999;28;20095;-71
2022/06/02 12:22:09;;;;;;;5.93;2.10;;;;;;;24.75;30.88;102031.47;5189184;28;20030;-70
2022/06/02 12:25:05;;;;;;;2.80;2.53;;;;;;;24.92;29.24;102020.91;5185909;28;20022;-71
2022/06/02 12:27:57;;;;;;;2.58;2.15;;;;;;;24.62;30.16;102020.34;5188409;28;20064;-72
2022/06/02 12:30:49;;;;;;;3.88;3.47;;;;;;;24.52;30.95;102020.47;5186721;28;20042;-69
2022/06/02 12:33:24;;;;;;;4.53;3.85;;;;;;;23.95;32.08;102013.59;5187150;28;20033;-71
2022/06/02 12:36:32;;;;;;;3.17;2.63;;;;;;;24.66;30.95;102005.66;5188677;28;20030;-71
2022/06/02 12:39:29;;;;;;;3.08;2.65;;;;;;;25.23;31.03;101998.94;5184744;28;20121;-71
2022/06/02 12:42:22;;;;;;;3.33;2.70;;;;;;;24.71;31.44;102002.50;5189181;28;20461;-71
2022/06/02 12:44:56;;;;;;;4.80;2.50;;;;;;;24.78;31.42;102004.38;5187653;28;20112;-72
2022/06/02 12:47:52;;;;;;;4.88;2.85;;;;;;;24.37;31.03;102012.13;5189060;28;20031;-71
2022/06/02 12:50:43;;;;;;;4.20;2.75;;;;;;;23.86;31.93;101999.31;5185802;28;20018;-69
2022/06/02 12:53:20;;;;;;;3.33;2.88;;;;;;;23.88;32.40;101990.13;5191844;28;20213;-70
2022/06/02 12:56:19;;;;;;;4.18;2.72;;;;;;;24.12;31.95;101980.63;5188001;28;20552;-70
2022/06/02 12:59:17;;;;;;;3.60;3.03;;;;;;;24.36;32.08;101989.03;5184988;28;20046;-71
2022/06/02 13:02:01;;;;;;;12.02;3.67;;;;;;;23.68;31.90;101986.75;5203217;28;20184;-69
2022/06/02 13:05:00;;;;;;;4.32;2.88;;;;;;;24.04;32.06;101991.25;5191129;28;20073;-67
2022/06/02 13:08:12;;;;;;;5.00;3.45;;;;;;;23.56;32.34;101994.16;5181273;28;20118;-70
2022/06/02 13:11:03;;;;;;;4.22;2.97;;;;;;;23.90;32.76;101990.81;5181743;28;20121;-70
2022/06/02 13:13:39;;;;;;;3.55;2.70;;;;;;;24.11;32.42;101986.13;5180371;28;20618;-71
2022/06/02 13:16:44;;;;;;;3.42;2.72;;;;;;;24.11;32.66;101986.97;5177072;28;20022;-71
2022/06/02 13:19:52;;;;;;;3.42;2.67;;;;;;;24.25;32.29;101985.63;5181604;28;20558;-71
2022/06/02 13:22:48;;;;;;;3.70;2.20;;;;;;;24.56;31.97;101973.59;5184581;28;20026;-73
2022/06/02 13:26:00;;;;;;;3.72;2.90;;;;;;;24.48;31.19;101982.44;5188106;28;20049;-71
2022/06/02 13:28:50;;;;;;;2.85;2.33;;;;;;;23.92;32.17;101971.94;5178626;28;20285;-70
2022/06/02 13:31:52;;;;;;;3.30;2.63;;;;;;;24.56;31.35;101973.59;5186268;28;20519;-69